createdAt,value
2019-01-19T06:23:35.636Z,13.87
2019-01-19T06:29:45.167Z,12.40
2019-01-19T06:32:13.606Z,16.63
2019-01-19T06:38:11.499Z,14.43
2019-01-19T06:44:09.124Z,13.97
2019-01-19T06:46:37.602Z,14.30
2019-01-19T06:49:06.120Z,12.90
2019-01-19T06:51:34.913Z,15.57
2019-01-19T06:57:32.346Z,14.60
2019-01-19T07:00:01.025Z,14.93
2019-01-19T07:02:29.461Z,14.33
2019-01-19T07:04:57.911Z,17.53
2019-01-19T07:10:30.771Z,12.80
2019-01-19T07:12:59.247Z,13.97
2019-01-19T07:15:27.686Z,13.17
2019-01-19T07:21:24.646Z,11.97
2019-01-19T07:23:53.111Z,13.37
2019-01-19T07:26:21.552Z,14.20
2019-01-19T07:28:49.999Z,19.07
2019-01-19T07:34:46.683Z,15.73
2019-01-19T07:37:15.130Z,15.37
2019-01-19T07:39:43.688Z,17.37
2019-01-19T07:42:12.486Z,14.97
2019-01-19T07:44:41.259Z,16.10
2019-01-19T07:47:10.106Z,15.57
2019-01-19T07:49:38.618Z,15.53
2019-01-19T07:52:07.334Z,14.47
2019-01-19T07:54:35.802Z,14.90
2019-01-19T07:57:04.419Z,17.63
2019-01-19T08:03:02.303Z,16.73
2019-01-19T08:05:31.162Z,15.03
2019-01-19T08:07:59.594Z,16.43
2019-01-19T08:10:28.331Z,12.97
2019-01-19T08:12:56.791Z,14.57
2019-01-19T08:15:27.276Z,16.63
2019-01-19T08:21:24.558Z,14.47
2019-01-19T08:23:53.032Z,15.57
2019-01-19T08:26:21.539Z,16.43
2019-01-19T08:28:49.981Z,12.80
2019-01-19T08:31:18.553Z,15.13
2019-01-19T08:33:46.990Z,17.90
2019-01-19T08:36:16.045Z,14.40
2019-01-19T08:38:44.590Z,18.03
2019-01-19T08:41:13.035Z,15.73
2019-01-19T08:43:43.114Z,13.47
2019-01-19T08:46:11.575Z,16.97
2019-01-19T08:48:40.154Z,13.90
2019-01-19T08:51:08.594Z,15.90
2019-01-19T08:57:05.310Z,14.10
2019-01-19T08:59:34.086Z,16.47
2019-01-19T09:02:02.598Z,13.13
2019-01-19T09:04:31.044Z,15.40
2019-01-19T09:06:59.905Z,13.93
2019-01-19T09:09:28.366Z,12.97
2019-01-19T09:11:56.806Z,12.47
2019-01-19T09:14:25.270Z,16.60
2019-01-19T09:16:53.720Z,14.67
2019-01-19T09:19:22.166Z,13.77
2019-01-19T09:21:50.649Z,16.27
2019-01-19T09:28:00.650Z,16.83
2019-01-19T09:30:29.163Z,14.93
2019-01-19T09:32:58.070Z,14.83
2019-01-19T09:35:26.558Z,16.00
2019-01-19T09:37:54.990Z,13.23
2019-01-19T09:40:23.426Z,16.93
2019-01-19T09:42:51.984Z,15.87
2019-01-19T09:45:21.054Z,14.53
2019-01-19T09:47:49.490Z,15.97
2019-01-19T09:50:22.289Z,17.90
2019-01-19T09:52:50.867Z,18.83
2019-01-19T09:55:19.316Z,14.97
2019-01-19T09:57:47.907Z,16.13
2019-01-19T10:00:24.547Z,18.07
2019-01-19T10:02:53.163Z,17.53
2019-01-19T10:05:23.442Z,15.90
2019-01-19T10:07:52.130Z,17.13
2019-01-19T10:10:20.829Z,16.37
2019-01-19T10:12:49.294Z,18.77
2019-01-19T10:15:18.971Z,16.20
2019-01-19T10:17:47.434Z,16.47
2019-01-19T10:20:24.539Z,16.13
2019-01-19T10:22:53.071Z,18.03
2019-01-19T10:25:21.773Z,17.07
2019-01-19T10:27:50.210Z,17.67
2019-01-19T10:30:30.076Z,16.60
2019-01-19T10:32:58.663Z,16.97
2019-01-19T10:35:27.159Z,18.43
2019-01-19T10:37:56.613Z,19.87
2019-01-19T10:40:25.314Z,18.40
2019-01-19T10:42:53.817Z,18.23
2019-01-19T10:45:25.078Z,19.13
2019-01-19T10:47:53.989Z,18.90
2019-01-19T10:50:22.499Z,18.07
2019-01-19T10:52:51.322Z,20.97
2019-01-19T10:55:21.595Z,22.33
2019-01-19T10:57:50.097Z,18.50
2019-01-19T11:00:35.157Z,19.97
2019-01-19T11:03:04.105Z,21.80
2019-01-19T11:09:01.901Z,24.43
2019-01-19T11:14:34.711Z,23.53
2019-01-19T11:20:32.266Z,24.33
2019-01-19T11:23:01.599Z,26.37
2019-01-19T11:25:30.571Z,28.87
2019-01-19T11:27:59.178Z,26.77
2019-01-19T11:30:30.029Z,28.93
2019-01-19T11:32:58.468Z,26.37
2019-01-19T11:38:55.615Z,25.23
2019-01-19T11:41:24.080Z,28.40
2019-01-19T11:47:33.852Z,26.83
2019-01-19T11:50:02.458Z,19.83
2019-01-19T11:55:59.966Z,24.40
2019-01-19T11:58:28.842Z,26.40
2019-01-19T12:04:25.959Z,26.90
2019-01-19T12:06:54.416Z,27.00
2019-01-19T12:09:22.859Z,25.63
2019-01-19T12:15:20.625Z,25.83
2019-01-19T12:17:49.334Z,28.63
2019-01-19T12:20:32.872Z,26.23
2019-01-19T12:23:01.403Z,25.03
2019-01-19T12:29:11.496Z,28.17
2019-01-19T12:35:21.225Z,25.83
2019-01-19T12:37:49.722Z,25.87
2019-01-19T12:43:47.290Z,27.37
2019-01-19T12:46:16.085Z,30.50
2019-01-19T12:52:13.807Z,25.90
2019-01-19T12:58:11.800Z,27.30
2019-01-19T13:00:40.559Z,29.27
2019-01-19T13:06:50.359Z,24.67
2019-01-19T13:09:19.126Z,26.93
2019-01-19T13:15:22.610Z,26.77
2019-01-19T13:17:57.034Z,27.23
2019-01-19T13:20:37.543Z,24.50
2019-01-19T13:23:21.455Z,23.10
2019-01-19T13:29:42.595Z,24.50
2019-01-19T13:36:12.571Z,26.47
2019-01-19T13:38:47.293Z,29.87
2019-01-19T13:44:51.039Z,27.03
2019-01-19T13:51:00.569Z,24.63
2019-01-19T13:53:32.103Z,25.15
2019-01-19T13:56:18.923Z,24.67
2019-01-19T13:58:53.229Z,24.57
2019-01-19T14:01:39.906Z,26.40
2019-01-19T14:04:20.649Z,27.13
2019-01-19T14:06:57.910Z,26.33
2019-01-19T14:09:35.105Z,25.23
2019-01-19T14:12:15.440Z,26.37
2019-01-19T14:15:08.485Z,25.43
2019-01-19T14:17:48.839Z,26.43
2019-01-19T14:24:10.848Z,26.07
2019-01-19T14:30:20.577Z,26.23
2019-01-19T14:33:08.771Z,27.10
2019-01-19T14:35:43.236Z,29.00
2019-01-19T14:41:38.249Z,23.83
2019-01-19T14:47:40.974Z,26.60
2019-01-19T14:50:28.129Z,25.03
2019-01-19T14:56:40.885Z,23.73
2019-01-19T15:03:25.695Z,24.23
2019-01-19T15:09:38.838Z,25.47
2019-01-19T15:16:06.054Z,26.03
2019-01-19T15:18:40.308Z,23.40
2019-01-19T16:29:52.878Z,27.43
2019-01-19T16:36:20.581Z,31.40
2019-01-19T16:39:05.752Z,27.17
2019-01-19T16:41:40.444Z,27.93
2019-01-19T16:44:12.025Z,28.00
2019-01-19T16:50:21.503Z,28.97
2019-01-19T16:52:55.702Z,29.00
2019-01-19T16:59:23.581Z,31.40
2019-01-19T17:05:45.235Z,48.00
2019-01-19T17:12:22.735Z,139.93
2019-01-19T17:15:13.567Z,128.50
2019-01-19T17:21:19.986Z,72.53
2019-01-19T17:24:03.206Z,57.87
2019-01-19T17:26:40.686Z,43.03
2019-01-19T17:29:36.231Z,40.63
2019-01-19T17:35:57.826Z,39.17
2019-01-19T17:38:40.641Z,37.87
2019-01-19T17:41:12.201Z,38.20
2019-01-19T17:43:58.635Z,36.77
2019-01-19T17:46:48.055Z,40.50
2019-01-19T17:53:15.162Z,41.80
2019-01-19T17:55:58.368Z,42.70
2019-01-19T17:58:42.003Z,40.97
2019-01-19T18:01:16.440Z,45.27
2019-01-19T18:07:16.468Z,37.50
2019-01-19T18:09:50.611Z,37.80
2019-01-19T18:16:08.784Z,34.97
2019-01-19T18:22:24.656Z,35.47
2019-01-19T18:28:47.154Z,34.90
2019-01-19T18:31:27.623Z,32.53
2019-01-19T18:34:20.476Z,38.27
2019-01-19T18:36:54.740Z,38.40
2019-01-19T18:42:46.109Z,34.17
2019-01-19T18:45:17.890Z,36.33
2019-01-19T18:48:01.409Z,34.73
2019-01-19T18:54:13.958Z,35.00
2019-01-19T19:00:29.712Z,35.77
2019-01-19T19:06:39.506Z,44.20
2019-01-19T19:09:14.335Z,39.03
2019-01-19T19:11:54.511Z,36.40
2019-01-19T19:18:29.758Z,38.80
2019-01-19T19:21:29.926Z,35.93
2019-01-19T19:27:59.547Z,29.43
2019-01-19T19:30:52.304Z,32.33
2019-01-19T19:33:29.824Z,35.63
2019-01-19T19:39:51.604Z,33.87
2019-01-19T19:42:31.962Z,36.23
2019-01-19T19:48:32.200Z,35.90
2019-01-19T19:54:29.947Z,35.10
2019-01-19T20:00:16.791Z,36.43
2019-01-19T20:02:45.278Z,39.87
2019-01-19T20:08:31.244Z,40.73
2019-01-19T20:10:59.681Z,41.67
2019-01-19T20:16:57.319Z,36.20
2019-01-19T20:19:25.803Z,30.77
2019-01-19T20:21:54.375Z,34.13
2019-01-19T20:24:22.867Z,41.77
2019-01-19T20:26:51.523Z,41.07
2019-01-19T20:29:19.967Z,38.10
